sensor_id;sensor_type;location;lat;lon;timestamp;P1;durP1;ratioP1;P2;durP2;ratioP2
33022;SDS011;19390;51.460;5.710;2022-08-19T00:01:36;25.38;;;22.73;;
33022;SDS011;19390;51.460;5.710;2022-08-19T00:04:04;27.48;;;24.65;;
33022;SDS011;19390;51.460;5.710;2022-08-19T00:06:31;26.50;;;23.80;;
33022;SDS011;19390;51.460;5.710;2022-08-19T00:09:00;25.60;;;23.10;;
33022;SDS011;19390;51.460;5.710;2022-08-19T00:11:26;26.13;;;22.25;;
33022;SDS011;19390;51.460;5.710;2022-08-19T00:13:53;24.73;;;22.23;;
33022;SDS011;19390;51.460;5.710;2022-08-19T00:16:20;23.73;;;21.38;;
33022;SDS011;19390;51.460;5.710;2022-08-19T00:18:47;25.42;;;21.30;;
33022;SDS011;19390;51.460;5.710;2022-08-19T00:21:14;22.95;;;20.42;;
33022;SDS011;19390;51.460;5.710;2022-08-19T00:23:40;23.77;;;21.42;;
33022;SDS011;19390;51.460;5.710;2022-08-19T00:26:08;24.20;;;21.80;;
33022;SDS011;19390;51.460;5.710;2022-08-19T00:28:35;25.08;;;21.98;;
33022;SDS011;19390;51.460;5.710;2022-08-19T00:31:04;24.17;;;21.55;;
33022;SDS011;19390;51.460;5.710;2022-08-19T00:33:32;27.95;;;23.90;;
33022;SDS011;19390;51.460;5.710;2022-08-19T00:35:58;25.40;;;22.70;;
33022;SDS011;19390;51.460;5.710;2022-08-19T00:38:24;27.08;;;22.73;;
33022;SDS011;19390;51.460;5.710;2022-08-19T00:40:50;28.90;;;24.90;;
33022;SDS011;19390;51.460;5.710;2022-08-19T00:43:20;29.80;;;24.85;;
33022;SDS011;19390;51.460;5.710;2022-08-19T00:45:48;27.42;;;24.67;;
33022;SDS011;19390;51.460;5.710;2022-08-19T00:48:15;27.63;;;24.73;;
33022;SDS011;19390;51.460;5.710;2022-08-19T00:50:42;27.35;;;23.73;;
33022;SDS011;19390;51.460;5.710;2022-08-19T00:53:09;27.08;;;24.27;;
33022;SDS011;19390;51.460;5.710;2022-08-19T00:55:36;25.65;;;23.00;;
33022;SDS011;19390;51.460;5.710;2022-08-19T00:58:05;29.52;;;25.27;;
33022;SDS011;19390;51.460;5.710;2022-08-19T01:00:33;27.10;;;24.38;;
33022;SDS011;19390;51.460;5.710;2022-08-19T01:03:02;31.25;;;27.92;;
33022;SDS011;19390;51.460;5.710;2022-08-19T01:05:30;32.08;;;25.25;;
33022;SDS011;19390;51.460;5.710;2022-08-19T01:07:57;31.48;;;28.17;;
33022;SDS011;19390;51.460;5.710;2022-08-19T01:10:27;31.55;;;27.55;;
33022;SDS011;19390;51.460;5.710;2022-08-19T01:12:57;36.00;;;29.73;;
33022;SDS011;19390;51.460;5.710;2022-08-19T01:15:26;34.97;;;30.02;;
33022;SDS011;19390;51.460;5.710;2022-08-19T01:17:54;33.17;;;29.77;;
33022;SDS011;19390;51.460;5.710;2022-08-19T01:20:22;35.55;;;30.10;;
33022;SDS011;19390;51.460;5.710;2022-08-19T01:22:50;31.10;;;26.83;;
33022;SDS011;19390;51.460;5.710;2022-08-19T01:25:21;35.75;;;31.88;;
33022;SDS011;19390;51.460;5.710;2022-08-19T01:27:53;34.28;;;28.08;;
33022;SDS011;19390;51.460;5.710;2022-08-19T01:30:25;30.77;;;27.52;;
33022;SDS011;19390;51.460;5.710;2022-08-19T01:32:57;33.45;;;28.95;;
33022;SDS011;19390;51.460;5.710;2022-08-19T01:35:28;37.42;;;31.42;;
33022;SDS011;19390;51.460;5.710;2022-08-19T01:38:03;31.30;;;27.92;;
33022;SDS011;19390;51.460;5.710;2022-08-19T01:40:32;33.60;;;27.45;;
33022;SDS011;19390;51.460;5.710;2022-08-19T01:43:00;33.53;;;28.67;;
33022;SDS011;19390;51.460;5.710;2022-08-19T01:45:30;30.63;;;27.30;;
33022;SDS011;19390;51.460;5.710;2022-08-19T01:47:58;35.00;;;28.80;;
33022;SDS011;19390;51.460;5.710;2022-08-19T01:50:24;30.40;;;27.08;;
33022;SDS011;19390;51.460;5.710;2022-08-19T01:52:50;32.72;;;28.02;;
33022;SDS011;19390;51.460;5.710;2022-08-19T01:55:18;30.17;;;26.92;;
33022;SDS011;19390;51.460;5.710;2022-08-19T01:57:46;31.92;;;28.60;;
33022;SDS011;19390;51.460;5.710;2022-08-19T02:00:17;28.90;;;25.90;;
33022;SDS011;19390;51.460;5.710;2022-08-19T02:02:44;29.67;;;26.48;;
33022;SDS011;19390;51.460;5.710;2022-08-19T02:05:10;30.77;;;25.95;;
33022;SDS011;19390;51.460;5.710;2022-08-19T02:07:37;31.60;;;28.30;;
33022;SDS011;19390;51.460;5.710;2022-08-19T02:10:09;30.05;;;26.30;;
33022;SDS011;19390;51.460;5.710;2022-08-19T02:12:38;28.83;;;25.75;;
33022;SDS011;19390;51.460;5.710;2022-08-19T02:15:03;28.98;;;25.00;;
33022;SDS011;19390;51.460;5.710;2022-08-19T02:17:31;27.30;;;24.50;;
33022;SDS011;19390;51.460;5.710;2022-08-19T02:19:57;33.22;;;25.35;;
33022;SDS011;19390;51.460;5.710;2022-08-19T02:22:23;32.78;;;27.45;;
33022;SDS011;19390;51.460;5.710;2022-08-19T02:24:50;31.77;;;28.13;;
33022;SDS011;19390;51.460;5.710;2022-08-19T02:27:16;36.05;;;29.73;;
33022;SDS011;19390;51.460;5.710;2022-08-19T02:29:42;41.53;;;30.98;;
33022;SDS011;19390;51.460;5.710;2022-08-19T02:32:08;34.65;;;30.58;;
33022;SDS011;19390;51.460;5.710;2022-08-19T02:34:34;39.83;;;32.30;;
33022;SDS011;19390;51.460;5.710;2022-08-19T02:36:59;36.97;;;31.67;;
33022;SDS011;19390;51.460;5.710;2022-08-19T02:39:25;35.45;;;27.98;;
33022;SDS011;19390;51.460;5.710;2022-08-19T02:41:51;32.92;;;28.55;;
33022;SDS011;19390;51.460;5.710;2022-08-19T02:44:17;36.85;;;30.02;;
33022;SDS011;19390;51.460;5.710;2022-08-19T02:46:44;34.00;;;29.23;;
33022;SDS011;19390;51.460;5.710;2022-08-19T02:49:11;33.95;;;29.80;;
33022;SDS011;19390;51.460;5.710;2022-08-19T02:51:41;34.15;;;29.48;;
33022;SDS011;19390;51.460;5.710;2022-08-19T02:54:09;38.08;;;28.42;;
33022;SDS011;19390;51.460;5.710;2022-08-19T02:56:37;35.20;;;28.40;;
33022;SDS011;19390;51.460;5.710;2022-08-19T02:59:05;33.83;;;27.92;;
33022;SDS011;19390;51.460;5.710;2022-08-19T03:01:33;35.55;;;28.73;;
33022;SDS011;19390;51.460;5.710;2022-08-19T03:04:00;31.83;;;26.92;;
33022;SDS011;19390;51.460;5.710;2022-08-19T03:06:27;30.80;;;27.00;;
33022;SDS011;19390;51.460;5.710;2022-08-19T03:08:53;31.98;;;25.67;;
33022;SDS011;19390;51.460;5.710;2022-08-19T03:11:30;35.78;;;27.17;;
33022;SDS011;19390;51.460;5.710;2022-08-19T03:13:57;37.60;;;29.67;;
33022;SDS011;19390;51.460;5.710;2022-08-19T03:16:24;36.95;;;28.35;;
33022;SDS011;19390;51.460;5.710;2022-08-19T03:18:55;39.28;;;28.17;;
33022;SDS011;19390;51.460;5.710;2022-08-19T03:21:25;44.10;;;29.45;;
33022;SDS011;19390;51.460;5.710;2022-08-19T03:23:55;34.40;;;27.60;;
33022;SDS011;19390;51.460;5.710;2022-08-19T03:26:23;34.58;;;28.50;;
33022;SDS011;19390;51.460;5.710;2022-08-19T03:28:48;36.85;;;28.83;;
33022;SDS011;19390;51.460;5.710;2022-08-19T03:31:16;38.85;;;28.95;;
33022;SDS011;19390;51.460;5.710;2022-08-19T03:33:44;37.97;;;29.65;;
33022;SDS011;19390;51.460;5.710;2022-08-19T03:36:15;35.85;;;28.25;;
33022;SDS011;19390;51.460;5.710;2022-08-19T03:38:49;38.47;;;30.58;;
33022;SDS011;19390;51.460;5.710;2022-08-19T03:41:23;34.85;;;28.50;;
33022;SDS011;19390;51.460;5.710;2022-08-19T03:43:52;41.15;;;30.27;;
33022;SDS011;19390;51.460;5.710;2022-08-19T03:46:20;43.97;;;30.58;;
33022;SDS011;19390;51.460;5.710;2022-08-19T03:48:52;41.50;;;29.45;;
33022;SDS011;19390;51.460;5.710;2022-08-19T03:51:23;42.72;;;31.00;;
33022;SDS011;19390;51.460;5.710;2022-08-19T03:53:53;44.42;;;30.67;;
33022;SDS011;19390;51.460;5.710;2022-08-19T03:56:20;50.88;;;32.70;;
33022;SDS011;19390;51.460;5.710;2022-08-19T03:58:46;46.65;;;31.00;;
33022;SDS011;19390;51.460;5.710;2022-08-19T04:01:14;40.30;;;30.05;;
33022;SDS011;19390;51.460;5.710;2022-08-19T04:03:42;41.65;;;31.55;;
33022;SDS011;19390;51.460;5.710;2022-08-19T04:06:12;43.22;;;31.25;;
33022;SDS011;19390;51.460;5.710;2022-08-19T04:08:43;38.25;;;30.90;;
33022;SDS011;19390;51.460;5.710;2022-08-19T04:11:12;41.88;;;31.90;;
33022;SDS011;19390;51.460;5.710;2022-08-19T04:13:40;38.17;;;29.08;;
33022;SDS011;19390;51.460;5.710;2022-08-19T04:16:08;39.25;;;30.80;;
33022;SDS011;19390;51.460;5.710;2022-08-19T04:18:35;45.47;;;30.80;;
33022;SDS011;19390;51.460;5.710;2022-08-19T04:21:01;36.75;;;29.05;;
33022;SDS011;19390;51.460;5.710;2022-08-19T04:23:27;36.22;;;28.67;;
33022;SDS011;19390;51.460;5.710;2022-08-19T04:25:56;35.60;;;27.95;;
33022;SDS011;19390;51.460;5.710;2022-08-19T04:28:21;40.00;;;30.70;;
33022;SDS011;19390;51.460;5.710;2022-08-19T04:30:49;31.45;;;25.70;;
33022;SDS011;19390;51.460;5.710;2022-08-19T04:33:17;32.25;;;27.52;;
33022;SDS011;19390;51.460;5.710;2022-08-19T04:35:47;44.78;;;30.80;;
33022;SDS011;19390;51.460;5.710;2022-08-19T04:38:15;34.10;;;28.73;;
33022;SDS011;19390;51.460;5.710;2022-08-19T04:40:43;35.72;;;26.45;;
33022;SDS011;19390;51.460;5.710;2022-08-19T04:43:28;37.42;;;29.23;;
33022;SDS011;19390;51.460;5.710;2022-08-19T04:45:54;40.63;;;30.55;;
33022;SDS011;19390;51.460;5.710;2022-08-19T04:48:20;33.03;;;26.48;;
33022;SDS011;19390;51.460;5.710;2022-08-19T04:50:55;36.30;;;29.10;;
33022;SDS011;19390;51.460;5.710;2022-08-19T04:53:28;43.13;;;32.13;;
33022;SDS011;19390;51.460;5.710;2022-08-19T04:55:58;38.65;;;31.35;;
33022;SDS011;19390;51.460;5.710;2022-08-19T04:58:28;36.33;;;29.40;;
33022;SDS011;19390;51.460;5.710;2022-08-19T05:00:53;44.15;;;32.00;;
33022;SDS011;19390;51.460;5.710;2022-08-19T05:03:19;36.03;;;28.27;;
33022;SDS011;19390;51.460;5.710;2022-08-19T05:05:46;38.85;;;26.23;;
33022;SDS011;19390;51.460;5.710;2022-08-19T05:08:16;37.30;;;27.42;;
33022;SDS011;19390;51.460;5.710;2022-08-19T05:10:45;35.72;;;26.38;;
33022;SDS011;19390;51.460;5.710;2022-08-19T05:13:16;34.88;;;26.40;;
33022;SDS011;19390;51.460;5.710;2022-08-19T05:15:43;40.50;;;29.35;;
33022;SDS011;19390;51.460;5.710;2022-08-19T05:18:09;44.30;;;30.63;;
33022;SDS011;19390;51.460;5.710;2022-08-19T05:20:54;39.13;;;31.08;;
33022;SDS011;19390;51.460;5.710;2022-08-19T05:23:38;35.90;;;28.75;;
33022;SDS011;19390;51.460;5.710;2022-08-19T05:26:03;42.83;;;34.08;;
33022;SDS011;19390;51.460;5.710;2022-08-19T05:28:30;40.67;;;34.60;;
33022;SDS011;19390;51.460;5.710;2022-08-19T05:30:55;43.33;;;35.67;;
33022;SDS011;19390;51.460;5.710;2022-08-19T05:33:21;46.20;;;38.30;;
33022;SDS011;19390;51.460;5.710;2022-08-19T05:35:49;38.25;;;32.78;;
33022;SDS011;19390;51.460;5.710;2022-08-19T05:38:15;42.30;;;33.90;;
33022;SDS011;19390;51.460;5.710;2022-08-19T05:40:42;51.55;;;40.47;;
33022;SDS011;19390;51.460;5.710;2022-08-19T05:43:11;55.63;;;42.53;;
33022;SDS011;19390;51.460;5.710;2022-08-19T05:45:40;55.60;;;40.72;;
33022;SDS011;19390;51.460;5.710;2022-08-19T05:48:07;53.58;;;41.60;;
33022;SDS011;19390;51.460;5.710;2022-08-19T05:50:36;61.40;;;44.35;;
33022;SDS011;19390;51.460;5.710;2022-08-19T05:53:02;62.70;;;45.65;;
33022;SDS011;19390;51.460;5.710;2022-08-19T05:55:27;58.05;;;44.38;;
33022;SDS011;19390;51.460;5.710;2022-08-19T05:57:53;51.15;;;41.13;;
33022;SDS011;19390;51.460;5.710;2022-08-19T06:00:19;49.50;;;40.50;;
33022;SDS011;19390;51.460;5.710;2022-08-19T06:02:44;58.55;;;44.30;;
33022;SDS011;19390;51.460;5.710;2022-08-19T06:05:10;59.92;;;44.42;;
33022;SDS011;19390;51.460;5.710;2022-08-19T06:07:36;54.15;;;41.70;;
33022;SDS011;19390;51.460;5.710;2022-08-19T06:10:06;58.50;;;42.90;;
33022;SDS011;19390;51.460;5.710;2022-08-19T06:12:34;57.83;;;41.78;;
33022;SDS011;19390;51.460;5.710;2022-08-19T06:15:01;51.47;;;38.80;;
33022;SDS011;19390;51.460;5.710;2022-08-19T06:17:30;50.30;;;39.35;;
33022;SDS011;19390;51.460;5.710;2022-08-19T06:19:56;52.65;;;37.95;;
33022;SDS011;19390;51.460;5.710;2022-08-19T06:22:22;52.88;;;40.15;;
33022;SDS011;19390;51.460;5.710;2022-08-19T06:24:47;54.90;;;40.10;;
33022;SDS011;19390;51.460;5.710;2022-08-19T06:27:17;52.35;;;39.80;;
33022;SDS011;19390;51.460;5.710;2022-08-19T06:29:43;49.72;;;38.85;;
33022;SDS011;19390;51.460;5.710;2022-08-19T06:32:09;55.92;;;41.13;;
33022;SDS011;19390;51.460;5.710;2022-08-19T06:34:36;53.13;;;40.55;;
33022;SDS011;19390;51.460;5.710;2022-08-19T06:37:01;54.55;;;40.90;;
33022;SDS011;19390;51.460;5.710;2022-08-19T06:39:28;55.83;;;41.10;;
33022;SDS011;19390;51.460;5.710;2022-08-19T06:41:58;53.70;;;41.50;;
33022;SDS011;19390;51.460;5.710;2022-08-19T06:44:28;55.55;;;42.13;;
33022;SDS011;19390;51.460;5.710;2022-08-19T06:46:56;52.55;;;41.17;;
33022;SDS011;19390;51.460;5.710;2022-08-19T06:49:22;52.15;;;40.78;;
33022;SDS011;19390;51.460;5.710;2022-08-19T06:51:48;47.15;;;36.03;;
33022;SDS011;19390;51.460;5.710;2022-08-19T06:54:15;51.60;;;40.22;;
33022;SDS011;19390;51.460;5.710;2022-08-19T06:56:43;53.75;;;38.45;;
33022;SDS011;19390;51.460;5.710;2022-08-19T06:59:11;52.17;;;40.72;;
33022;SDS011;19390;51.460;5.710;2022-08-19T07:01:41;48.70;;;38.15;;
33022;SDS011;19390;51.460;5.710;2022-08-19T07:04:10;45.22;;;35.95;;
33022;SDS011;19390;51.460;5.710;2022-08-19T07:06:37;55.20;;;39.53;;
33022;SDS011;19390;51.460;5.710;2022-08-19T07:09:04;44.55;;;35.97;;
33022;SDS011;19390;51.460;5.710;2022-08-19T07:11:30;43.00;;;35.08;;
33022;SDS011;19390;51.460;5.710;2022-08-19T07:13:57;46.03;;;37.28;;
33022;SDS011;19390;51.460;5.710;2022-08-19T07:16:23;44.70;;;35.72;;
33022;SDS011;19390;51.460;5.710;2022-08-19T07:18:49;38.42;;;33.25;;
33022;SDS011;19390;51.460;5.710;2022-08-19T07:21:20;35.25;;;29.73;;
33022;SDS011;19390;51.460;5.710;2022-08-19T07:23:54;39.65;;;32.78;;
33022;SDS011;19390;51.460;5.710;2022-08-19T07:26:29;41.67;;;33.88;;
33022;SDS011;19390;51.460;5.710;2022-08-19T07:28:57;37.38;;;31.23;;
33022;SDS011;19390;51.460;5.710;2022-08-19T07:31:25;37.67;;;31.95;;
33022;SDS011;19390;51.460;5.710;2022-08-19T07:33:52;37.83;;;30.27;;
33022;SDS011;19390;51.460;5.710;2022-08-19T07:36:21;38.40;;;31.83;;
33022;SDS011;19390;51.460;5.710;2022-08-19T07:38:50;34.63;;;28.55;;
33022;SDS011;19390;51.460;5.710;2022-08-19T07:41:17;39.55;;;32.55;;
33022;SDS011;19390;51.460;5.710;2022-08-19T07:43:44;38.80;;;31.17;;
33022;SDS011;19390;51.460;5.710;2022-08-19T07:46:11;37.38;;;27.10;;
33022;SDS011;19390;51.460;5.710;2022-08-19T07:48:39;36.72;;;28.17;;
33022;SDS011;19390;51.460;5.710;2022-08-19T07:51:06;33.63;;;27.98;;
33022;SDS011;19390;51.460;5.710;2022-08-19T07:53:33;36.28;;;27.50;;
33022;SDS011;19390;51.460;5.710;2022-08-19T07:56:00;32.00;;;27.13;;
33022;SDS011;19390;51.460;5.710;2022-08-19T07:58:29;33.55;;;27.63;;
33022;SDS011;19390;51.460;5.710;2022-08-19T08:00:57;36.20;;;25.55;;
33022;SDS011;19390;51.460;5.710;2022-08-19T08:03:24;31.52;;;24.92;;
33022;SDS011;19390;51.460;5.710;2022-08-19T08:06:11;32.92;;;26.45;;
33022;SDS011;19390;51.460;5.710;2022-08-19T08:08:56;31.77;;;25.75;;
33022;SDS011;19390;51.460;5.710;2022-08-19T08:11:45;31.95;;;25.13;;
33022;SDS011;19390;51.460;5.710;2022-08-19T08:14:23;37.20;;;27.05;;
33022;SDS011;19390;51.460;5.710;2022-08-19T08:16:52;28.88;;;23.02;;
33022;SDS011;19390;51.460;5.710;2022-08-19T08:19:18;31.88;;;24.67;;
33022;SDS011;19390;51.460;5.710;2022-08-19T08:21:46;29.95;;;23.70;;
33022;SDS011;19390;51.460;5.710;2022-08-19T08:24:12;29.88;;;22.60;;
33022;SDS011;19390;51.460;5.710;2022-08-19T08:26:38;24.23;;;19.45;;
33022;SDS011;19390;51.460;5.710;2022-08-19T08:29:05;27.83;;;19.67;;
33022;SDS011;19390;51.460;5.710;2022-08-19T08:31:34;25.92;;;18.70;;
33022;SDS011;19390;51.460;5.710;2022-08-19T08:33:59;22.90;;;18.98;;
33022;SDS011;19390;51.460;5.710;2022-08-19T08:36:25;26.38;;;18.30;;
33022;SDS011;19390;51.460;5.710;2022-08-19T08:38:52;22.20;;;16.17;;
33022;SDS011;19390;51.460;5.710;2022-08-19T08:45:13;22.83;;;14.77;;
33022;SDS011;19390;51.460;5.710;2022-08-19T08:47:17;15.73;;;13.88;;
33022;SDS011;19390;51.460;5.710;2022-08-19T08:49:50;20.50;;;15.13;;
33022;SDS011;19390;51.460;5.710;2022-08-19T08:52:31;15.00;;;12.45;;
33022;SDS011;19390;51.460;5.710;2022-08-19T08:55:10;19.15;;;14.23;;
33022;SDS011;19390;51.460;5.710;2022-08-19T09:03:03;15.50;;;11.05;;
33022;SDS011;19390;51.460;5.710;2022-08-19T09:10:54;14.80;;;12.00;;
33022;SDS011;19390;51.460;5.710;2022-08-19T09:16:02;15.43;;;13.07;;
33022;SDS011;19390;51.460;5.710;2022-08-19T09:21:12;15.57;;;13.60;;
33022;SDS011;19390;51.460;5.710;2022-08-19T09:23:38;20.48;;;13.93;;
33022;SDS011;19390;51.460;5.710;2022-08-19T09:26:08;15.43;;;13.40;;
33022;SDS011;19390;51.460;5.710;2022-08-19T09:28:38;19.20;;;15.25;;
33022;SDS011;19390;51.460;5.710;2022-08-19T09:31:08;15.23;;;12.52;;
33022;SDS011;19390;51.460;5.710;2022-08-19T09:33:41;18.50;;;15.15;;
33022;SDS011;19390;51.460;5.710;2022-08-19T09:36:11;15.98;;;13.88;;
33022;SDS011;19390;51.460;5.710;2022-08-19T09:38:38;13.38;;;10.50;;
33022;SDS011;19390;51.460;5.710;2022-08-19T09:41:08;13.63;;;11.18;;
33022;SDS011;19390;51.460;5.710;2022-08-19T09:43:37;11.88;;;10.68;;
33022;SDS011;19390;51.460;5.710;2022-08-19T09:46:03;14.90;;;12.18;;
33022;SDS011;19390;51.460;5.710;2022-08-19T09:48:34;11.60;;;9.43;;
33022;SDS011;19390;51.460;5.710;2022-08-19T09:51:08;12.88;;;11.50;;
33022;SDS011;19390;51.460;5.710;2022-08-19T09:53:36;11.32;;;9.93;;
33022;SDS011;19390;51.460;5.710;2022-08-19T09:56:03;9.20;;;8.30;;
33022;SDS011;19390;51.460;5.710;2022-08-19T09:58:30;9.02;;;8.18;;
33022;SDS011;19390;51.460;5.710;2022-08-19T10:00:57;12.00;;;10.77;;
33022;SDS011;19390;51.460;5.710;2022-08-19T10:03:24;12.52;;;10.85;;
33022;SDS011;19390;51.460;5.710;2022-08-19T10:05:51;14.10;;;12.00;;
33022;SDS011;19390;51.460;5.710;2022-08-19T10:08:26;14.32;;;13.02;;
33022;SDS011;19390;51.460;5.710;2022-08-19T10:10:55;14.48;;;12.88;;
33022;SDS011;19390;51.460;5.710;2022-08-19T10:13:23;15.50;;;13.90;;
33022;SDS011;19390;51.460;5.710;2022-08-19T10:15:54;15.30;;;13.70;;
33022;SDS011;19390;51.460;5.710;2022-08-19T10:18:22;17.40;;;14.25;;
33022;SDS011;19390;51.460;5.710;2022-08-19T10:20:49;15.43;;;13.80;;
33022;SDS011;19390;51.460;5.710;2022-08-19T10:23:16;14.90;;;12.40;;
33022;SDS011;19390;51.460;5.710;2022-08-19T10:25:42;18.48;;;14.27;;
33022;SDS011;19390;51.460;5.710;2022-08-19T10:28:08;17.20;;;12.70;;
33022;SDS011;19390;51.460;5.710;2022-08-19T10:30:36;20.10;;;17.90;;
33022;SDS011;19390;51.460;5.710;2022-08-19T10:33:02;19.55;;;15.35;;
33022;SDS011;19390;51.460;5.710;2022-08-19T10:35:28;18.25;;;15.88;;
33022;SDS011;19390;51.460;5.710;2022-08-19T10:37:54;23.05;;;17.38;;
33022;SDS011;19390;51.460;5.710;2022-08-19T10:40:24;24.27;;;18.15;;
33022;SDS011;19390;51.460;5.710;2022-08-19T10:42:51;21.05;;;16.15;;
33022;SDS011;19390;51.460;5.710;2022-08-19T10:45:17;21.05;;;15.82;;
33022;SDS011;19390;51.460;5.710;2022-08-19T10:47:43;16.48;;;11.55;;
33022;SDS011;19390;51.460;5.710;2022-08-19T10:50:09;17.48;;;13.57;;
33022;SDS011;19390;51.460;5.710;2022-08-19T10:52:54;22.20;;;17.10;;
33022;SDS011;19390;51.460;5.710;2022-08-19T10:55:20;20.20;;;15.90;;
33022;SDS011;19390;51.460;5.710;2022-08-19T10:58:10;17.52;;;13.77;;
33022;SDS011;19390;51.460;5.710;2022-08-19T11:00:40;20.85;;;14.85;;
33022;SDS011;19390;51.460;5.710;2022-08-19T11:03:07;17.13;;;13.27;;
33022;SDS011;19390;51.460;5.710;2022-08-19T11:05:32;14.05;;;11.65;;
33022;SDS011;19390;51.460;5.710;2022-08-19T11:07:58;15.30;;;12.52;;
33022;SDS011;19390;51.460;5.710;2022-08-19T11:10:24;17.63;;;13.52;;
33022;SDS011;19390;51.460;5.710;2022-08-19T11:12:50;14.35;;;12.85;;
33022;SDS011;19390;51.460;5.710;2022-08-19T11:15:19;14.15;;;12.63;;
33022;SDS011;19390;51.460;5.710;2022-08-19T11:17:46;19.83;;;13.15;;
33022;SDS011;19390;51.460;5.710;2022-08-19T11:20:12;15.90;;;12.15;;
33022;SDS011;19390;51.460;5.710;2022-08-19T11:22:39;14.30;;;10.90;;
33022;SDS011;19390;51.460;5.710;2022-08-19T11:25:06;14.88;;;10.85;;
33022;SDS011;19390;51.460;5.710;2022-08-19T11:27:37;16.90;;;12.75;;
33022;SDS011;19390;51.460;5.710;2022-08-19T11:30:04;18.00;;;13.65;;
33022;SDS011;19390;51.460;5.710;2022-08-19T11:32:32;18.52;;;12.80;;
33022;SDS011;19390;51.460;5.710;2022-08-19T11:34:58;15.07;;;12.13;;
33022;SDS011;19390;51.460;5.710;2022-08-19T11:37:24;17.48;;;13.05;;
33022;SDS011;19390;51.460;5.710;2022-08-19T11:39:50;18.45;;;13.57;;
33022;SDS011;19390;51.460;5.710;2022-08-19T11:42:15;17.05;;;13.00;;
33022;SDS011;19390;51.460;5.710;2022-08-19T11:45:01;14.38;;;10.35;;
33022;SDS011;19390;51.460;5.710;2022-08-19T11:47:29;17.25;;;12.65;;
33022;SDS011;19390;51.460;5.710;2022-08-19T11:49:55;18.65;;;13.65;;
33022;SDS011;19390;51.460;5.710;2022-08-19T11:52:21;15.98;;;12.38;;
33022;SDS011;19390;51.460;5.710;2022-08-19T11:54:47;13.48;;;11.40;;
33022;SDS011;19390;51.460;5.710;2022-08-19T11:57:13;17.50;;;12.32;;
33022;SDS011;19390;51.460;5.710;2022-08-19T11:59:41;14.20;;;12.25;;
33022;SDS011;19390;51.460;5.710;2022-08-19T12:02:07;15.85;;;13.05;;
33022;SDS011;19390;51.460;5.710;2022-08-19T12:04:33;19.23;;;16.00;;
33022;SDS011;19390;51.460;5.710;2022-08-19T12:06:59;17.50;;;15.60;;
33022;SDS011;19390;51.460;5.710;2022-08-19T12:09:26;15.43;;;13.63;;
33022;SDS011;19390;51.460;5.710;2022-08-19T12:11:52;19.23;;;16.55;;
33022;SDS011;19390;51.460;5.710;2022-08-19T12:14:18;18.55;;;16.55;;
33022;SDS011;19390;51.460;5.710;2022-08-19T12:16:44;19.75;;;17.10;;
33022;SDS011;19390;51.460;5.710;2022-08-19T12:19:11;19.90;;;16.63;;
33022;SDS011;19390;51.460;5.710;2022-08-19T12:21:36;17.98;;;14.82;;
33022;SDS011;19390;51.460;5.710;2022-08-19T12:24:03;18.73;;;16.23;;
33022;SDS011;19390;51.460;5.710;2022-08-19T12:26:30;18.20;;;15.70;;
33022;SDS011;19390;51.460;5.710;2022-08-19T12:28:56;20.05;;;16.73;;
33022;SDS011;19390;51.460;5.710;2022-08-19T12:31:24;18.80;;;16.80;;
33022;SDS011;19390;51.460;5.710;2022-08-19T12:33:50;18.85;;;16.65;;
33022;SDS011;19390;51.460;5.710;2022-08-19T12:36:17;16.67;;;14.90;;
33022;SDS011;19390;51.460;5.710;2022-08-19T12:38:43;19.58;;;17.25;;
33022;SDS011;19390;51.460;5.710;2022-08-19T12:41:10;17.27;;;15.30;;
33022;SDS011;19390;51.460;5.710;2022-08-19T12:43:37;19.13;;;15.95;;
33022;SDS011;19390;51.460;5.710;2022-08-19T12:46:03;17.40;;;15.07;;
33022;SDS011;19390;51.460;5.710;2022-08-19T12:48:32;15.88;;;14.27;;
33022;SDS011;19390;51.460;5.710;2022-08-19T12:50:58;18.60;;;16.60;;
33022;SDS011;19390;51.460;5.710;2022-08-19T12:53:24;18.60;;;16.08;;
33022;SDS011;19390;51.460;5.710;2022-08-19T12:55:56;20.58;;;18.27;;
33022;SDS011;19390;51.460;5.710;2022-08-19T12:58:24;19.27;;;17.17;;
33022;SDS011;19390;51.460;5.710;2022-08-19T13:00:50;21.88;;;18.83;;
33022;SDS011;19390;51.460;5.710;2022-08-19T13:03:16;21.63;;;19.33;;
33022;SDS011;19390;51.460;5.710;2022-08-19T13:05:42;21.33;;;18.23;;
33022;SDS011;19390;51.460;5.710;2022-08-19T13:08:08;23.17;;;18.15;;
33022;SDS011;19390;51.460;5.710;2022-08-19T13:10:34;22.95;;;18.90;;
33022;SDS011;19390;51.460;5.710;2022-08-19T13:13:01;23.08;;;19.17;;
33022;SDS011;19390;51.460;5.710;2022-08-19T13:15:36;24.98;;;19.83;;
33022;SDS011;19390;51.460;5.710;2022-08-19T13:18:05;21.40;;;19.10;;
33022;SDS011;19390;51.460;5.710;2022-08-19T13:20:31;20.88;;;17.67;;
33022;SDS011;19390;51.460;5.710;2022-08-19T13:22:57;20.27;;;17.27;;
33022;SDS011;19390;51.460;5.710;2022-08-19T13:25:23;22.23;;;19.50;;
33022;SDS011;19390;51.460;5.710;2022-08-19T13:27:50;20.25;;;17.63;;
33022;SDS011;19390;51.460;5.710;2022-08-19T13:30:16;25.38;;;19.65;;
33022;SDS011;19390;51.460;5.710;2022-08-19T13:33:03;18.38;;;16.48;;
33022;SDS011;19390;51.460;5.710;2022-08-19T13:35:36;20.27;;;17.85;;
33022;SDS011;19390;51.460;5.710;2022-08-19T13:38:02;19.38;;;17.10;;
33022;SDS011;19390;51.460;5.710;2022-08-19T13:40:30;19.85;;;16.27;;
33022;SDS011;19390;51.460;5.710;2022-08-19T13:42:58;19.75;;;16.20;;
33022;SDS011;19390;51.460;5.710;2022-08-19T13:45:26;20.48;;;17.30;;
33022;SDS011;19390;51.460;5.710;2022-08-19T13:47:53;19.92;;;15.75;;
33022;SDS011;19390;51.460;5.710;2022-08-19T13:50:22;18.25;;;15.60;;
33022;SDS011;19390;51.460;5.710;2022-08-19T13:52:53;14.02;;;12.43;;
33022;SDS011;19390;51.460;5.710;2022-08-19T13:55:20;14.57;;;12.52;;
33022;SDS011;19390;51.460;5.710;2022-08-19T13:57:49;15.98;;;13.85;;
33022;SDS011;19390;51.460;5.710;2022-08-19T14:00:30;15.10;;;13.30;;
33022;SDS011;19390;51.460;5.710;2022-08-19T14:02:58;12.30;;;10.95;;
33022;SDS011;19390;51.460;5.710;2022-08-19T14:05:24;12.48;;;10.95;;
33022;SDS011;19390;51.460;5.710;2022-08-19T14:07:51;11.85;;;10.40;;
33022;SDS011;19390;51.460;5.710;2022-08-19T14:10:17;12.30;;;10.73;;
33022;SDS011;19390;51.460;5.710;2022-08-19T14:12:43;11.38;;;8.93;;
33022;SDS011;19390;51.460;5.710;2022-08-19T14:15:10;11.70;;;8.73;;
33022;SDS011;19390;51.460;5.710;2022-08-19T14:17:37;12.95;;;9.13;;
33022;SDS011;19390;51.460;5.710;2022-08-19T14:20:05;9.50;;;8.60;;
33022;SDS011;19390;51.460;5.710;2022-08-19T14:22:34;10.32;;;9.18;;
33022;SDS011;19390;51.460;5.710;2022-08-19T14:25:01;10.80;;;9.27;;
33022;SDS011;19390;51.460;5.710;2022-08-19T14:27:27;10.35;;;9.20;;
33022;SDS011;19390;51.460;5.710;2022-08-19T14:29:52;11.73;;;10.32;;
33022;SDS011;19390;51.460;5.710;2022-08-19T14:32:18;12.93;;;8.90;;
33022;SDS011;19390;51.460;5.710;2022-08-19T14:34:44;10.05;;;8.90;;
33022;SDS011;19390;51.460;5.710;2022-08-19T14:37:13;11.50;;;9.13;;
33022;SDS011;19390;51.460;5.710;2022-08-19T14:39:40;10.35;;;8.73;;
33022;SDS011;19390;51.460;5.710;2022-08-19T14:42:10;11.82;;;10.07;;
33022;SDS011;19390;51.460;5.710;2022-08-19T14:44:36;10.32;;;9.23;;
33022;SDS011;19390;51.460;5.710;2022-08-19T14:47:03;8.70;;;7.90;;
33022;SDS011;19390;51.460;5.710;2022-08-19T14:49:28;9.48;;;8.48;;